Aidamar — ICSJ — position and weather

sailwx.info

Track history (hours):
 
Tides and Currents Weather Stations Pressure Air Temp Water Temp Dewpoint Dewpoint Depression Visibility Wind Speed Wind Dir Waves Ship Positions

Aidamar

Last reported at 2015-Mar-03 15:33 UTC. Time now 2015-Mar-03 16:32 UTC.
Position N 49°29' E 000°07'.

Length 253 m; draft 7.3 m.

Type: Passenger vessel. MMSI: 247312900.

Date/timePositionNaut miles runAvg speedWind from/ knotsBaromVisibWave heightAir tempDewpointWater temp
2015-Mar-03 15:33N 49°29' E 000°07'0 0.0
2015-Mar-03 14:33N 49°29' E 000°07'0 0.0
2015-Mar-03 13:33N 49°29' E 000°07'0 0.0
2015-Mar-03 12:32N 49°29' E 000°07'0 0.0
2015-Mar-03 11:33N 49°29' E 000°07'0 0.0
2015-Mar-03 10:33N 49°29' E 000°07'0 0.0
2015-Mar-03 09:31N 49°29' E 000°07'0 0.0
2015-Mar-03 08:33N 49°29' E 000°07'0 0.1
2015-Mar-03 07:33N 49°29' E 000°06'9 8.5
2015-Mar-03 06:33N 49°31' W 000°06'1211.9
2015-Mar-03 05:33N 49°36' W 000°23'9 9.2
2015-Mar-03 04:33N 49°39' W 000°37'21812.8
2015-Mar-02 11:33N 48°08' W 005°39'  
2015-Feb-28 01:25N 39°08' W 009°49'1312.5
2015-Feb-28 00:22N 38°55' W 009°50'1012.3
2015-Feb-27 23:33N 38°45' W 009°50'1111.3
2015-Feb-27 22:33N 38°35' W 009°45'1413.8
2015-Feb-27 21:34N 38°35' W 009°27'1312.7
2015-Feb-27 20:33N 38°41' W 009°13'4 4.3
2015-Feb-27 19:33N 38°43' W 009°08'0 0.0
2015-Feb-27 18:31N 38°43' W 009°08'0 0.0
2015-Feb-27 17:29N 38°43' W 009°08'0 0.0
2015-Feb-27 16:29N 38°43' W 009°08'0 0.0
2015-Feb-27 15:32N 38°43' W 009°08'0 0.0
2015-Feb-27 14:32N 38°43' W 009°08'0 0.0
2015-Feb-27 13:33N 38°43' W 009°08'0 0.0
2015-Feb-27 12:30N 38°43' W 009°08'0 0.0
2015-Feb-27 11:31N 38°43' W 009°08'0 0.0
2015-Feb-27 10:27N 38°43' W 009°08'0 0.0
2015-Feb-27 09:27N 38°43' W 009°08'0 0.0
2015-Feb-27 08:31N 38°43' W 009°08'0 0.0
2015-Feb-27 07:33N 38°43' W 009°08'0 0.0
2015-Feb-27 06:33N 38°43' W 009°08'0 0.0
2015-Feb-27 05:31N 38°43' W 009°08'0 0.0
2015-Feb-27 04:34N 38°43' W 009°08'0 0.0
2015-Feb-27 03:30N 38°43' W 009°08'0 0.0
2015-Feb-27 02:33N 38°43' W 009°08'0 0.0
2015-Feb-27 01:31N 38°43' W 009°08'0 0.0
2015-Feb-27 00:31N 38°43' W 009°08'0 0.0
2015-Feb-26 23:28N 38°43' W 009°08'0 0.0
2015-Feb-26 22:32N 38°43' W 009°08'0 0.0
2015-Feb-26 21:32N 38°43' W 009°08'0 0.0
2015-Feb-26 20:33N 38°43' W 009°08'0 0.0
2015-Feb-26 19:33N 38°43' W 009°08'0 0.0
2015-Feb-26 18:33N 38°43' W 009°08'0 0.0
2015-Feb-26 17:32N 38°43' W 009°08'0 0.0
2015-Feb-26 16:32N 38°43' W 009°08'0 0.0
2015-Feb-26 15:26N 38°43' W 009°08'0 0.0
2015-Feb-26 14:31N 38°43' W 009°08'0 0.0
2015-Feb-26 13:29N 38°43' W 009°08'5 4.9
2015-Feb-26 12:33N 38°41' W 009°13'1010.3
2015-Feb-26 11:33N 38°35' W 009°24'1313.3
2015-Feb-26 10:33N 38°22' W 009°23'1413.7
2015-Feb-26 09:33N 38°08' W 009°23'1312.9
2015-Feb-26 08:33N 37°55' W 009°23'1212.6
2015-Feb-26 07:33N 37°42' W 009°22'6910.8
2015-Feb-26 01:09N 36°42' W 008°40'3015.5
2015-Feb-25 23:14N 36°40' W 008°03'128 3.0
2015-Feb-24 04:33N 35°58' W 005°34'1313.4
2015-Feb-24 03:33N 36°02' W 005°18'7 7.4
2015-Feb-24 02:33N 36°07' W 005°11'220 5.6
2015-Feb-22 11:33N 37°13' W 000°49'2115.7
2015-Feb-22 10:12N 37°25' W 000°27'1115.6
2015-Feb-22 09:31N 37°31' W 000°16'13815.4
2015-Feb-22 00:33N 38°57' E 002°01'1616.2
2015-Feb-21 23:33N 39°09' E 002°15'1615.8
2015-Feb-21 22:32N 39°21' E 002°28'1414.7
2015-Feb-21 21:33N 39°33' E 002°39'1 0.7
2015-Feb-21 20:33N 39°33' E 002°38'0 0.0
2015-Feb-21 19:33N 39°33' E 002°38'0 0.0
2015-Feb-21 18:33N 39°33' E 002°38'0 0.0
2015-Feb-21 17:33N 39°33' E 002°38'0 0.0
2015-Feb-21 16:33N 39°33' E 002°38'0 0.0
2015-Feb-21 15:33N 39°33' E 002°38'  
Track history (hours):
 
Tides and Currents Weather Stations Pressure Air Temp Water Temp Dewpoint Dewpoint Depression Visibility Wind Speed Wind Dir Waves Ship Positions

Aidamar

Last reported at 2015-Mar-03 15:33 UTC. Time now 2015-Mar-03 16:32 UTC.
Position N 49°29' E 000°07'.

Length 253 m; draft 7.3 m.

Type: Passenger vessel. MMSI: 247312900.

Date/timePositionNaut miles runAvg speedWind from/ knotsBaromVisibWave heightAir tempDewpointWater temp
2015-Mar-03 15:33N 49°29' E 000°07'0 0.0
2015-Mar-03 14:33N 49°29' E 000°07'0 0.0
2015-Mar-03 13:33N 49°29' E 000°07'0 0.0
2015-Mar-03 12:32N 49°29' E 000°07'0 0.0
2015-Mar-03 11:33N 49°29' E 000°07'0 0.0
2015-Mar-03 10:33N 49°29' E 000°07'0 0.0
2015-Mar-03 09:31N 49°29' E 000°07'0 0.0
2015-Mar-03 08:33N 49°29' E 000°07'0 0.1
2015-Mar-03 07:33N 49°29' E 000°06'9 8.5
2015-Mar-03 06:33N 49°31' W 000°06'1211.9
2015-Mar-03 05:33N 49°36' W 000°23'9 9.2
2015-Mar-03 04:33N 49°39' W 000°37'21812.8
2015-Mar-02 11:33N 48°08' W 005°39'  
2015-Feb-28 01:25N 39°08' W 009°49'1312.5
2015-Feb-28 00:22N 38°55' W 009°50'1012.3
2015-Feb-27 23:33N 38°45' W 009°50'1111.3
2015-Feb-27 22:33N 38°35' W 009°45'1413.8
2015-Feb-27 21:34N 38°35' W 009°27'1312.7
2015-Feb-27 20:33N 38°41' W 009°13'4 4.3
2015-Feb-27 19:33N 38°43' W 009°08'0 0.0
2015-Feb-27 18:31N 38°43' W 009°08'0 0.0
2015-Feb-27 17:29N 38°43' W 009°08'0 0.0
2015-Feb-27 16:29N 38°43' W 009°08'0 0.0
2015-Feb-27 15:32N 38°43' W 009°08'0 0.0
2015-Feb-27 14:32N 38°43' W 009°08'0 0.0
2015-Feb-27 13:33N 38°43' W 009°08'0 0.0
2015-Feb-27 12:30N 38°43' W 009°08'0 0.0
2015-Feb-27 11:31N 38°43' W 009°08'0 0.0
2015-Feb-27 10:27N 38°43' W 009°08'0 0.0
2015-Feb-27 09:27N 38°43' W 009°08'0 0.0
2015-Feb-27 08:31N 38°43' W 009°08'0 0.0
2015-Feb-27 07:33N 38°43' W 009°08'0 0.0
2015-Feb-27 06:33N 38°43' W 009°08'0 0.0
2015-Feb-27 05:31N 38°43' W 009°08'0 0.0
2015-Feb-27 04:34N 38°43' W 009°08'0 0.0
2015-Feb-27 03:30N 38°43' W 009°08'0 0.0
2015-Feb-27 02:33N 38°43' W 009°08'0 0.0
2015-Feb-27 01:31N 38°43' W 009°08'0 0.0
2015-Feb-27 00:31N 38°43' W 009°08'0 0.0
2015-Feb-26 23:28N 38°43' W 009°08'0 0.0
2015-Feb-26 22:32N 38°43' W 009°08'0 0.0
2015-Feb-26 21:32N 38°43' W 009°08'0 0.0
2015-Feb-26 20:33N 38°43' W 009°08'0 0.0
2015-Feb-26 19:33N 38°43' W 009°08'0 0.0
2015-Feb-26 18:33N 38°43' W 009°08'0 0.0
2015-Feb-26 17:32N 38°43' W 009°08'0 0.0
2015-Feb-26 16:32N 38°43' W 009°08'0 0.0
2015-Feb-26 15:26N 38°43' W 009°08'0 0.0
2015-Feb-26 14:31N 38°43' W 009°08'0 0.0
2015-Feb-26 13:29N 38°43' W 009°08'5 4.9
2015-Feb-26 12:33N 38°41' W 009°13'1010.3
2015-Feb-26 11:33N 38°35' W 009°24'1313.3
2015-Feb-26 10:33N 38°22' W 009°23'1413.7
2015-Feb-26 09:33N 38°08' W 009°23'1312.9
2015-Feb-26 08:33N 37°55' W 009°23'1212.6
2015-Feb-26 07:33N 37°42' W 009°22'6910.8
2015-Feb-26 01:09N 36°42' W 008°40'3015.5
2015-Feb-25 23:14N 36°40' W 008°03'128 3.0
2015-Feb-24 04:33N 35°58' W 005°34'1313.4
2015-Feb-24 03:33N 36°02' W 005°18'7 7.4
2015-Feb-24 02:33N 36°07' W 005°11'220 5.6
2015-Feb-22 11:33N 37°13' W 000°49'2115.7
2015-Feb-22 10:12N 37°25' W 000°27'1115.6
2015-Feb-22 09:31N 37°31' W 000°16'13815.4
2015-Feb-22 00:33N 38°57' E 002°01'1616.2
2015-Feb-21 23:33N 39°09' E 002°15'1615.8
2015-Feb-21 22:32N 39°21' E 002°28'1414.7
2015-Feb-21 21:33N 39°33' E 002°39'1 0.7
2015-Feb-21 20:33N 39°33' E 002°38'0 0.0
2015-Feb-21 19:33N 39°33' E 002°38'0 0.0
2015-Feb-21 18:33N 39°33' E 002°38'0 0.0
2015-Feb-21 17:33N 39°33' E 002°38'0 0.0
2015-Feb-21 16:33N 39°33' E 002°38'0 0.0
2015-Feb-21 15:33N 39°33' E 002°38'  

Dump ship's entire track history